Accueil
METAR-TAF:

METAR-TAF

Aéroports :

Buochs, Suisse

latitude: 46-58-28N, longitude: 8-23-49E, altitude: 449 m

Observation

Le bulletin a été fait il y a 15 minutes, à 21:20 UTC
Vent 4 kt de sud-ouest
Température 16°C
Humidité 55%
Pression 1013 hPa
Visibilité 10 km ou plus
pas de nuages en-dessous de 1500 mètres et pas de cumulonimbus.

METAR: LSZC 022120Z AUTO 23004KT CAVOK 16/07 Q1013

Heure: 23:35 (21:35 UTC)

Prévision

Le bulletin a été fait il y a 7 heures et 10 minutes, à 14:25 UTC
Prévision valable du 02 à 15 UTC au 02 à 24 UTC
Vent 3 kt de direction variable
Visibilité 10 km ou plus
pas de nuages en-dessous de 1500 mètres et pas de cumulonimbus.
Temporairement
du 02 à 15 UTC au 02 à 18 UTC
Visibilité 10 km ou plus
Quelques nuages à une hauteur de 6000 ft

TAF: LSZC 021425Z 0215/0224 VRB03KT CAVOK TEMPO 0215/0218 9999 FEW060

Observations et prévisions météorologiques de plus de 4000 aéroports (messages METAR et TAF).

Les stations disponibles sont représentées par des disques jaunes et rouges sur la carte.

Passer la souris dessus pour voir le nom de la station.

Cliquer dessus pour voir les observations et prévisions météorologiques.

Pour changer de carte: cliquez sur les boutons verts avec une croix noire pour zoomer, sur le bouton vert avec un tiret pour effectuer un zoom arrière, ou sur les flèches vertes pour les cartes adjacentes.


METAR-TAF: